createdAt,value
2019-03-23T00:02:29.062Z,6.00
2019-03-23T00:04:59.288Z,6.55
2019-03-23T00:07:29.529Z,6.53
2019-03-23T00:09:59.764Z,6.10
2019-03-23T00:12:29.983Z,6.35
2019-03-23T00:15:00.308Z,6.85
2019-03-23T00:17:30.602Z,6.33
2019-03-23T00:20:00.757Z,5.90
2019-03-23T00:22:30.977Z,6.47
2019-03-23T00:25:01.195Z,6.00
2019-03-23T00:27:31.495Z,6.47
2019-03-23T00:30:01.730Z,6.22
2019-03-23T00:32:32.042Z,6.33
2019-03-23T00:35:02.203Z,6.15
2019-03-23T00:37:32.397Z,6.00
2019-03-23T00:40:02.643Z,6.12
2019-03-23T00:42:32.927Z,5.70
2019-03-23T00:45:03.266Z,6.22
2019-03-23T00:47:33.395Z,6.15
2019-03-23T00:50:03.623Z,5.80
2019-03-23T00:52:33.853Z,5.90
2019-03-23T00:55:04.154Z,5.70
2019-03-23T00:57:34.376Z,6.22
2019-03-23T01:00:04.861Z,5.58
2019-03-23T01:02:35.022Z,5.85
2019-03-23T01:05:05.701Z,5.62
2019-03-23T01:07:35.890Z,5.33
2019-03-23T01:10:07.232Z,6.42
2019-03-23T01:12:37.407Z,5.55
2019-03-23T01:15:08.301Z,5.83
2019-03-23T01:17:38.614Z,5.83
2019-03-23T01:20:09.160Z,5.90
2019-03-23T01:22:39.366Z,6.03
2019-03-23T01:25:09.539Z,5.78
2019-03-23T01:27:39.708Z,5.72
2019-03-23T01:30:10.523Z,5.53
2019-03-23T01:32:40.773Z,5.45
2019-03-23T01:35:11.398Z,5.55
2019-03-23T01:37:41.527Z,6.05
2019-03-23T01:40:11.664Z,6.12
2019-03-23T01:42:41.905Z,5.37
2019-03-23T01:45:11.994Z,5.45
2019-03-23T01:47:42.310Z,5.40
2019-03-23T01:50:12.950Z,5.72
2019-03-23T01:52:43.181Z,5.28
2019-03-23T01:55:13.501Z,5.22
2019-03-23T01:57:43.690Z,5.70
2019-03-23T02:00:13.862Z,5.62
2019-03-23T02:02:44.159Z,5.67
2019-03-23T02:05:14.392Z,5.58
2019-03-23T02:07:44.625Z,5.72
2019-03-23T02:10:14.856Z,5.72
2019-03-23T02:12:45.063Z,5.25
2019-03-23T02:15:15.303Z,5.40
2019-03-23T02:17:45.599Z,5.47
2019-03-23T02:20:15.831Z,5.17
2019-03-23T02:22:45.953Z,5.08
2019-03-23T02:25:16.135Z,5.08
2019-03-23T02:27:46.390Z,5.45
2019-03-23T02:30:16.619Z,5.22
2019-03-23T02:32:46.758Z,5.42
2019-03-23T02:35:16.985Z,5.33
2019-03-23T02:37:47.218Z,5.12
2019-03-23T02:40:17.496Z,5.35
2019-03-23T02:42:47.733Z,5.70
2019-03-23T02:45:17.885Z,5.45
2019-03-23T02:47:48.105Z,5.53
2019-03-23T02:50:18.320Z,5.20
2019-03-23T02:52:48.628Z,5.47
2019-03-23T02:55:18.753Z,5.35
2019-03-23T02:57:48.895Z,5.03
2019-03-23T03:00:19.118Z,5.60
2019-03-23T03:02:49.502Z,5.10
2019-03-23T03:05:19.730Z,5.35
2019-03-23T03:07:49.909Z,5.05
2019-03-23T03:10:42.307Z,5.65
2019-03-23T03:13:12.453Z,4.67
2019-03-23T03:15:42.668Z,5.08
2019-03-23T03:18:12.973Z,5.08
2019-03-23T03:20:43.201Z,5.00
2019-03-23T03:23:13.238Z,5.37
2019-03-23T03:25:43.571Z,5.25
2019-03-23T03:28:13.793Z,5.05
2019-03-23T03:30:44.077Z,5.30
2019-03-23T03:33:14.333Z,4.97
2019-03-23T03:35:44.461Z,5.30
2019-03-23T03:38:14.689Z,5.22
2019-03-23T03:40:44.884Z,4.97
2019-03-23T03:43:15.206Z,5.20
2019-03-23T03:45:45.529Z,5.25
2019-03-23T03:48:15.687Z,5.05
2019-03-23T03:50:45.910Z,5.62
2019-03-23T03:53:16.156Z,5.22
2019-03-23T03:55:46.414Z,5.40
2019-03-23T03:58:16.637Z,4.42
2019-03-23T04:00:46.791Z,5.47
2019-03-23T04:03:17.006Z,4.97
2019-03-23T04:05:47.235Z,5.12
2019-03-23T04:08:17.528Z,5.28
2019-03-23T04:10:47.761Z,5.12
2019-03-23T04:13:17.900Z,5.05
2019-03-23T04:15:48.230Z,5.45
2019-03-23T04:18:18.440Z,4.83
2019-03-23T04:20:48.807Z,5.15
2019-03-23T04:23:19.065Z,4.80
2019-03-23T04:25:49.292Z,5.08
2019-03-23T04:28:19.561Z,4.90
2019-03-23T04:30:49.758Z,4.75
2019-03-23T04:33:19.991Z,4.78
2019-03-23T04:35:50.285Z,5.37
2019-03-23T04:38:22.995Z,5.10
2019-03-23T04:40:52.469Z,5.10
2019-03-23T04:43:22.611Z,5.10
2019-03-23T04:45:52.732Z,5.20
2019-03-23T04:48:22.945Z,5.12
2019-03-23T04:50:53.259Z,5.00
2019-03-23T04:53:23.435Z,5.12
2019-03-23T04:55:53.609Z,5.65
2019-03-23T04:58:23.835Z,5.08
2019-03-23T05:00:53.907Z,5.40
2019-03-23T05:03:24.111Z,5.42
2019-03-23T05:05:54.312Z,5.17
2019-03-23T05:08:32.943Z,5.17
2019-03-23T05:10:56.491Z,4.95
2019-03-23T05:13:27.097Z,5.25
2019-03-23T05:15:57.365Z,5.17
2019-03-23T05:18:27.691Z,5.10
2019-03-23T05:20:57.908Z,5.33
2019-03-23T05:23:28.140Z,5.58
2019-03-23T05:25:58.368Z,6.35
2019-03-23T05:28:28.667Z,5.78
2019-03-23T05:30:59.056Z,5.45
2019-03-23T05:33:29.233Z,5.42
2019-03-23T05:35:59.464Z,5.67
2019-03-23T05:38:29.712Z,5.95
2019-03-23T05:40:59.976Z,6.62
2019-03-23T05:43:30.214Z,6.92
2019-03-23T05:46:00.444Z,6.55
2019-03-23T05:48:30.688Z,6.45
2019-03-23T05:51:00.896Z,7.72
2019-03-23T05:53:31.237Z,6.75
2019-03-23T05:56:01.280Z,6.50
2019-03-23T05:58:31.293Z,7.00
2019-03-23T06:01:01.381Z,6.67
2019-03-23T06:03:31.597Z,7.22
2019-03-23T06:06:01.910Z,6.70
2019-03-23T06:08:31.966Z,7.12
2019-03-23T06:11:02.186Z,7.30
2019-03-23T06:13:32.470Z,7.25
2019-03-23T06:16:02.913Z,6.92
2019-03-23T06:18:33.220Z,6.35
2019-03-23T06:21:03.374Z,6.47
2019-03-23T06:23:33.609Z,6.70
2019-03-23T06:26:06.342Z,7.35
2019-03-23T06:28:35.759Z,6.35
2019-03-23T06:31:05.976Z,7.03
2019-03-23T06:33:36.188Z,6.00
2019-03-23T06:36:06.647Z,6.62
2019-03-23T06:38:36.848Z,7.20
2019-03-23T06:41:07.306Z,6.35
2019-03-23T06:43:37.514Z,6.65
2019-03-23T06:46:07.818Z,6.03
2019-03-23T06:48:38.151Z,7.03
2019-03-23T06:51:08.368Z,6.50
2019-03-23T06:53:38.515Z,6.97
2019-03-23T06:56:08.728Z,6.70
2019-03-23T06:58:39.044Z,6.97
2019-03-23T07:01:09.361Z,6.53
2019-03-23T07:03:39.509Z,7.00
2019-03-23T07:06:09.728Z,7.00
2019-03-23T07:08:39.957Z,7.10
2019-03-23T07:11:10.301Z,7.17
2019-03-23T07:13:40.581Z,6.92
2019-03-23T07:16:10.725Z,7.15
2019-03-23T07:18:40.958Z,7.00
2019-03-23T07:21:11.207Z,6.78
2019-03-23T07:23:41.195Z,7.20
2019-03-23T07:26:11.304Z,6.80
2019-03-23T07:28:41.254Z,6.95
2019-03-23T07:31:11.523Z,6.47
2019-03-23T07:33:41.758Z,6.87
2019-03-23T07:36:11.808Z,6.10
2019-03-23T07:38:42.011Z,6.95
2019-03-23T07:41:12.248Z,6.90
2019-03-23T07:43:42.546Z,6.50
2019-03-23T07:46:12.867Z,6.08
2019-03-23T07:48:43.120Z,6.45
2019-03-23T07:51:13.350Z,6.92
2019-03-23T07:53:43.559Z,6.97
2019-03-23T07:56:13.864Z,7.30
2019-03-23T07:58:44.238Z,6.72
2019-03-23T08:01:14.429Z,6.83
2019-03-23T08:03:44.653Z,6.87
2019-03-23T08:06:14.888Z,6.85
2019-03-23T08:08:45.229Z,7.03
2019-03-23T08:11:15.505Z,7.35
2019-03-23T08:13:45.724Z,7.22
2019-03-23T08:16:15.869Z,6.90
2019-03-23T08:18:46.089Z,7.47
2019-03-23T08:21:16.430Z,7.12
2019-03-23T08:23:46.717Z,7.05
2019-03-23T08:26:16.960Z,7.05
2019-03-23T08:28:47.076Z,7.22
2019-03-23T08:31:17.314Z,8.55
2019-03-23T08:33:47.617Z,8.20
2019-03-23T08:36:18.676Z,7.20
2019-03-23T08:38:48.926Z,8.00
2019-03-23T08:41:19.204Z,7.05
2019-03-23T08:43:49.518Z,7.67
2019-03-23T08:46:19.779Z,7.15
2019-03-23T08:48:49.991Z,7.80
2019-03-23T08:51:20.224Z,7.25
2019-03-23T08:53:50.521Z,7.65
2019-03-23T08:56:20.740Z,7.12
2019-03-23T08:58:48.624Z,7.05
2019-03-23T09:01:18.932Z,6.65
2019-03-23T09:03:52.723Z,6.53
2019-03-23T09:06:21.025Z,7.20
2019-03-23T09:08:51.189Z,7.20
2019-03-23T09:11:21.285Z,7.03
2019-03-23T09:13:51.596Z,8.18
2019-03-23T09:16:21.908Z,8.45
2019-03-23T09:18:52.064Z,8.00
2019-03-23T09:21:22.289Z,7.42
2019-03-23T09:23:52.586Z,7.70
2019-03-23T09:26:22.906Z,8.60
2019-03-23T09:28:53.145Z,7.35
2019-03-23T09:31:23.373Z,7.90
2019-03-23T09:33:53.639Z,7.35
2019-03-23T09:36:23.810Z,7.22
2019-03-23T09:38:54.016Z,7.50
2019-03-23T09:41:24.256Z,7.58
2019-03-23T09:43:54.488Z,7.58
2019-03-23T09:46:24.699Z,7.80
2019-03-23T09:48:54.940Z,7.90
2019-03-23T09:51:25.240Z,6.95
2019-03-23T09:53:55.455Z,7.47
2019-03-23T09:56:25.612Z,8.00
2019-03-23T09:58:55.817Z,8.10
2019-03-23T10:01:26.038Z,7.58
2019-03-23T10:03:56.348Z,7.53
2019-03-23T10:06:26.585Z,8.25
2019-03-23T10:08:56.808Z,7.75
2019-03-23T10:11:27.036Z,7.97
2019-03-23T10:13:57.272Z,7.47
2019-03-23T10:16:27.577Z,7.65
2019-03-23T10:18:57.895Z,7.80
2019-03-23T10:21:28.220Z,7.67
2019-03-23T10:23:58.366Z,7.83
2019-03-23T10:26:28.590Z,7.42
2019-03-23T10:28:58.851Z,7.33
2019-03-23T10:31:29.122Z,6.87
2019-03-23T10:33:59.455Z,7.67
2019-03-23T10:36:29.567Z,7.47
2019-03-23T10:38:59.805Z,7.50
2019-03-23T10:41:30.010Z,7.33
2019-03-23T10:44:00.003Z,7.30
2019-03-23T10:46:30.165Z,6.67
2019-03-23T10:49:00.380Z,7.08
2019-03-23T10:51:30.611Z,7.35
2019-03-23T10:54:00.927Z,7.37
2019-03-23T10:56:31.237Z,6.50
2019-03-23T10:59:01.379Z,6.80
2019-03-23T11:01:31.598Z,7.03
2019-03-23T11:04:01.947Z,7.10
2019-03-23T11:06:32.163Z,6.95
2019-03-23T11:09:02.532Z,6.65
2019-03-23T11:11:32.783Z,6.50
2019-03-23T11:14:02.925Z,6.60
2019-03-23T11:16:33.145Z,6.47
2019-03-23T11:19:09.583Z,6.90
2019-03-23T11:21:35.317Z,6.53
2019-03-23T11:24:05.641Z,6.87
2019-03-23T11:26:35.891Z,7.00
2019-03-23T11:29:06.001Z,6.42
2019-03-23T11:31:36.129Z,6.90
2019-03-23T11:34:06.428Z,6.60
2019-03-23T11:36:36.649Z,6.30
2019-03-23T11:39:07.820Z,6.33
2019-03-23T11:41:37.987Z,6.33
2019-03-23T11:44:08.243Z,6.90
2019-03-23T11:46:38.334Z,6.40
2019-03-23T11:49:08.388Z,6.05
2019-03-23T11:51:38.708Z,6.05
2019-03-23T11:54:09.027Z,6.58
2019-03-23T11:56:39.358Z,6.72
2019-03-23T11:59:09.532Z,5.85
2019-03-23T12:01:39.841Z,8.20
2019-03-23T12:04:10.044Z,7.62
2019-03-23T12:06:40.358Z,7.97
2019-03-23T12:09:10.575Z,7.65
2019-03-23T12:11:40.811Z,7.70
2019-03-23T12:14:11.040Z,7.45
2019-03-23T12:16:41.402Z,7.20
2019-03-23T12:19:11.656Z,7.00
2019-03-23T12:21:41.888Z,7.58
2019-03-23T12:24:12.034Z,7.15
2019-03-23T12:26:42.259Z,7.65
2019-03-23T12:29:12.497Z,7.30
2019-03-23T12:31:42.781Z,7.37
2019-03-23T12:34:13.013Z,7.12
2019-03-23T12:36:43.335Z,7.70
2019-03-23T12:39:13.483Z,9.38
2019-03-23T12:41:43.727Z,8.28
2019-03-23T12:44:13.937Z,7.87
2019-03-23T12:46:48.287Z,7.53
2019-03-23T12:49:16.191Z,7.08
2019-03-23T12:51:46.324Z,6.85
2019-03-23T12:54:16.561Z,6.90
2019-03-23T12:56:46.763Z,7.20
2019-03-23T12:59:17.119Z,6.97
2019-03-23T13:01:47.519Z,7.20
2019-03-23T13:04:17.834Z,7.47
2019-03-23T13:06:48.070Z,7.42
2019-03-23T13:09:18.296Z,7.22
2019-03-23T13:11:48.533Z,6.97
2019-03-23T13:14:18.824Z,7.35
2019-03-23T13:16:49.154Z,7.85
2019-03-23T13:19:19.368Z,7.42
2019-03-23T13:21:49.513Z,7.33
2019-03-23T13:24:19.734Z,6.87
2019-03-23T13:26:49.967Z,7.05
2019-03-23T13:29:20.262Z,6.72
2019-03-23T13:31:50.495Z,7.40
2019-03-23T13:34:20.720Z,6.92
2019-03-23T13:36:50.960Z,6.80
2019-03-23T13:39:21.180Z,6.87
2019-03-23T13:41:51.832Z,6.78
2019-03-23T13:44:22.122Z,6.95
2019-03-23T13:46:52.447Z,6.78
2019-03-23T13:49:22.764Z,6.78
2019-03-23T13:51:53.021Z,7.08
2019-03-23T13:54:23.139Z,6.97
2019-03-23T13:56:53.360Z,7.05
2019-03-23T13:59:23.654Z,7.28
2019-03-23T14:01:53.882Z,6.67
2019-03-23T14:04:24.133Z,6.95
2019-03-23T14:06:54.351Z,7.35
2019-03-23T14:09:24.554Z,6.67
2019-03-23T14:11:55.459Z,7.25
2019-03-23T14:14:25.630Z,7.62
2019-03-23T14:16:55.940Z,6.62
2019-03-23T14:19:26.255Z,7.30
2019-03-23T14:21:56.406Z,6.47
2019-03-23T14:24:26.611Z,7.22
2019-03-23T14:26:56.860Z,7.45
2019-03-23T14:29:27.149Z,6.90
2019-03-23T14:31:57.477Z,7.37
2019-03-23T14:34:27.620Z,6.70
2019-03-23T14:36:57.844Z,7.00
2019-03-23T14:39:28.136Z,7.33
2019-03-23T14:42:04.794Z,7.45
2019-03-23T14:44:30.324Z,7.47
2019-03-23T14:47:00.586Z,8.00
2019-03-23T14:49:30.790Z,8.13
2019-03-23T14:52:01.028Z,7.67
2019-03-23T14:54:31.334Z,7.55
2019-03-23T14:57:01.408Z,8.45
2019-03-23T14:59:31.568Z,8.95
2019-03-23T15:02:01.822Z,8.08
2019-03-23T15:04:32.026Z,8.18
2019-03-23T15:07:02.345Z,8.18
2019-03-23T15:09:32.658Z,8.20
2019-03-23T15:12:02.823Z,7.50
2019-03-23T15:14:33.144Z,8.05
2019-03-23T15:17:03.354Z,7.45
2019-03-23T15:19:33.653Z,6.85
2019-03-23T15:22:03.984Z,7.65
2019-03-23T15:24:34.314Z,8.15
2019-03-23T15:27:04.683Z,7.87
2019-03-23T15:29:34.865Z,7.37
2019-03-23T15:32:05.101Z,7.78
2019-03-23T15:34:35.320Z,7.67
2019-03-23T15:37:05.631Z,7.70
2019-03-23T15:39:35.950Z,8.00
2019-03-23T15:42:06.104Z,8.10
2019-03-23T15:44:36.301Z,8.08
2019-03-23T15:47:06.538Z,8.50
2019-03-23T15:49:36.849Z,15.18
2019-03-23T15:52:07.068Z,17.30
2019-03-23T15:54:37.311Z,18.70
2019-03-23T15:57:07.532Z,21.20
2019-03-23T15:59:37.769Z,24.27
2019-03-23T16:02:08.184Z,25.05
2019-03-23T16:04:38.390Z,25.08
2019-03-23T16:07:08.616Z,27.95
2019-03-23T16:09:38.764Z,32.48
2019-03-23T16:12:09.084Z,25.27
2019-03-23T16:14:39.391Z,23.55
2019-03-23T16:17:09.701Z,23.10
2019-03-23T16:19:39.850Z,22.32
2019-03-23T16:22:10.067Z,23.75
2019-03-23T16:24:40.298Z,24.63
2019-03-23T16:27:10.595Z,25.72
2019-03-23T16:29:40.835Z,25.12
2019-03-23T16:32:11.169Z,23.18
2019-03-23T16:34:41.399Z,23.62
2019-03-23T16:37:11.619Z,22.00
2019-03-23T16:39:41.761Z,24.07
2019-03-23T16:42:11.843Z,24.47
2019-03-23T16:44:42.090Z,23.90
2019-03-23T16:47:12.344Z,29.00
2019-03-23T16:49:42.534Z,29.10
2019-03-23T16:52:12.927Z,28.75
2019-03-23T16:54:43.175Z,29.63
2019-03-23T16:57:14.609Z,29.25
2019-03-23T16:59:44.934Z,25.62
2019-03-23T17:02:15.252Z,25.72
2019-03-23T17:04:45.508Z,26.97
2019-03-23T17:07:15.712Z,27.90
2019-03-23T17:09:45.950Z,28.05
2019-03-23T17:12:16.260Z,26.20
2019-03-23T17:14:46.614Z,25.08
2019-03-23T17:17:16.997Z,25.60
2019-03-23T17:19:47.151Z,24.72
2019-03-23T17:22:17.347Z,25.62
2019-03-23T17:24:47.673Z,24.72
2019-03-23T17:27:17.997Z,25.12
2019-03-23T17:29:48.263Z,25.45
2019-03-23T17:32:18.451Z,23.77
2019-03-23T17:34:48.693Z,24.55
2019-03-23T17:37:18.993Z,23.52
2019-03-23T17:39:49.217Z,23.90
2019-03-23T17:42:19.453Z,24.05
2019-03-23T17:44:49.591Z,23.67
2019-03-23T17:47:19.790Z,24.87
2019-03-23T17:49:50.111Z,23.60
2019-03-23T17:52:20.424Z,23.57
2019-03-23T17:54:50.598Z,22.70
2019-03-23T17:57:23.008Z,22.20
2019-03-23T17:59:52.579Z,22.67
2019-03-23T18:02:22.927Z,21.95
2019-03-23T18:04:53.187Z,22.10
2019-03-23T18:07:23.509Z,22.80
2019-03-23T18:09:53.679Z,22.30
2019-03-23T18:12:23.878Z,21.90
2019-03-23T18:14:54.101Z,22.73
2019-03-23T18:17:24.393Z,22.27
2019-03-23T18:19:54.732Z,21.17
2019-03-23T18:22:24.970Z,21.30
2019-03-23T18:24:55.197Z,20.68
2019-03-23T18:27:25.401Z,20.95
2019-03-23T18:29:55.723Z,21.57
2019-03-23T18:32:26.035Z,20.95
2019-03-23T18:34:56.369Z,20.35
2019-03-23T18:37:26.613Z,20.75
2019-03-23T18:39:56.963Z,19.77
2019-03-23T18:42:27.162Z,20.00
2019-03-23T18:44:57.476Z,21.77
2019-03-23T18:47:27.789Z,20.48
2019-03-23T18:49:58.022Z,20.00
2019-03-23T18:52:28.249Z,19.45
2019-03-23T18:54:58.483Z,20.27
2019-03-23T18:57:28.695Z,19.23
2019-03-23T18:59:59.008Z,20.88
2019-03-23T19:02:29.329Z,19.75
2019-03-23T19:04:59.586Z,18.65
2019-03-23T19:07:29.785Z,19.27
2019-03-23T19:10:00.034Z,19.40
2019-03-23T19:12:30.330Z,19.00
2019-03-23T19:15:00.554Z,18.60
2019-03-23T19:17:30.505Z,18.15
2019-03-23T19:20:00.720Z,18.80
2019-03-23T19:22:30.932Z,18.37
2019-03-23T19:25:01.241Z,17.95
2019-03-23T19:27:31.561Z,18.45
2019-03-23T19:30:01.741Z,18.37
2019-03-23T19:32:31.942Z,18.42
2019-03-23T19:35:02.156Z,17.95
2019-03-23T19:37:32.458Z,17.65
2019-03-23T19:40:02.774Z,17.23
2019-03-23T19:42:32.927Z,18.07
2019-03-23T19:45:03.071Z,17.17
2019-03-23T19:47:33.295Z,18.02
2019-03-23T19:50:03.490Z,17.07
2019-03-23T19:52:33.810Z,16.67
2019-03-23T19:55:03.747Z,18.27
2019-03-23T19:57:31.477Z,17.20
2019-03-23T20:00:01.730Z,16.52
2019-03-23T20:02:31.937Z,17.30
2019-03-23T20:05:02.137Z,16.65
2019-03-23T20:07:33.401Z,15.68
2019-03-23T20:10:03.637Z,15.58
2019-03-23T20:12:33.853Z,15.75
2019-03-23T20:15:04.155Z,15.68
2019-03-23T20:17:34.305Z,16.27
2019-03-23T20:20:04.846Z,15.93
2019-03-23T20:22:35.076Z,15.38
2019-03-23T20:25:05.559Z,14.78
2019-03-23T20:27:35.785Z,15.75
2019-03-23T20:30:06.428Z,15.13
2019-03-23T20:32:36.750Z,14.93
2019-03-23T20:35:07.275Z,15.15
2019-03-23T20:37:37.492Z,15.30
2019-03-23T20:40:08.039Z,15.20
2019-03-23T20:42:38.312Z,15.38
2019-03-23T20:45:08.577Z,14.30
2019-03-23T20:47:38.816Z,13.83
2019-03-23T20:50:09.637Z,13.98
2019-03-23T20:52:39.898Z,14.43
2019-03-23T20:55:24.124Z,15.30
2019-03-23T20:57:54.764Z,14.03
2019-03-23T21:00:25.201Z,13.98
2019-03-23T21:02:55.498Z,14.80
2019-03-23T21:05:33.888Z,14.40
2019-03-23T21:07:57.681Z,13.93
2019-03-23T21:10:27.845Z,13.72
2019-03-23T21:12:58.045Z,13.65
2019-03-23T21:15:28.279Z,13.32
2019-03-23T21:17:58.571Z,13.85
2019-03-23T21:20:28.945Z,13.32
2019-03-23T21:22:59.137Z,13.93
2019-03-23T21:25:29.376Z,12.88
2019-03-23T21:27:59.599Z,13.45
2019-03-23T21:30:29.902Z,12.90
2019-03-23T21:33:00.217Z,13.05
2019-03-23T21:35:30.438Z,12.28
2019-03-23T21:38:00.596Z,12.80
2019-03-23T21:40:30.803Z,12.63
2019-03-23T21:43:01.032Z,11.93
2019-03-23T21:45:31.334Z,12.33
2019-03-23T21:48:01.562Z,12.68
2019-03-23T21:50:31.797Z,12.10
2019-03-23T21:53:02.023Z,12.25
2019-03-23T21:55:32.249Z,11.83
2019-03-23T21:58:02.563Z,12.23
2019-03-23T22:00:35.887Z,11.75
2019-03-23T22:03:06.088Z,11.75
2019-03-23T22:05:36.314Z,12.82
2019-03-23T22:08:06.550Z,11.45
2019-03-23T22:10:36.839Z,11.45
2019-03-23T22:13:07.068Z,11.88
2019-03-23T22:15:37.387Z,11.12
2019-03-23T22:18:07.646Z,10.93
2019-03-23T22:20:37.857Z,12.07
2019-03-23T22:23:08.168Z,11.10
2019-03-23T22:25:38.396Z,11.55
2019-03-23T22:28:08.634Z,11.48
2019-03-23T22:30:38.844Z,11.08
2019-03-23T22:33:09.152Z,11.45
2019-03-23T22:35:39.475Z,11.60
2019-03-23T22:38:09.705Z,11.60
2019-03-23T22:40:39.942Z,11.08
2019-03-23T22:43:10.218Z,11.05
2019-03-23T22:45:40.392Z,11.48
2019-03-23T22:48:10.739Z,11.28
2019-03-23T22:50:41.012Z,10.98
2019-03-23T22:53:11.350Z,10.95
2019-03-23T22:55:41.610Z,10.55
2019-03-23T22:58:11.827Z,11.12
2019-03-23T23:00:43.140Z,10.85
2019-03-23T23:03:13.888Z,10.75
2019-03-23T23:05:44.178Z,11.03
2019-03-23T23:08:14.355Z,10.70
2019-03-23T23:10:44.557Z,11.25
2019-03-23T23:13:14.844Z,10.43
2019-03-23T23:15:45.088Z,10.35
2019-03-23T23:18:15.320Z,10.70
2019-03-23T23:20:45.464Z,9.93
2019-03-23T23:23:15.686Z,10.30
2019-03-23T23:25:45.901Z,9.63
2019-03-23T23:28:16.200Z,9.78
2019-03-23T23:30:46.427Z,10.08
2019-03-23T23:33:16.561Z,10.60
2019-03-23T23:35:46.790Z,9.93
2019-03-23T23:38:17.009Z,9.83
2019-03-23T23:40:47.322Z,9.38
2019-03-23T23:43:17.542Z,9.20
2019-03-23T23:45:47.677Z,10.40
2019-03-23T23:48:17.899Z,9.60
2019-03-23T23:50:48.141Z,9.53
2019-03-23T23:53:18.428Z,9.78
2019-03-23T23:55:48.652Z,9.98
2019-03-23T23:58:18.784Z,9.98
